sensor_id;sensor_type;location;lat;lon;timestamp;noise_LAeq;noise_LA_min;noise_LA_max;noise_LA01;noise_LA95
74496;Laerm;62979;55.720;37.606;2022-12-15T00:01:21;45.17;40.58;48.94;;
74496;Laerm;62979;55.720;37.606;2022-12-15T00:04:06;45.97;41.05;65.27;;
74496;Laerm;62979;55.720;37.606;2022-12-15T00:06:51;47.12;42.43;62.57;;
74496;Laerm;62979;55.720;37.606;2022-12-15T00:09:36;45.13;40.84;51.14;;
74496;Laerm;62979;55.720;37.606;2022-12-15T00:12:20;47.31;40.62;59.03;;
74496;Laerm;62979;55.720;37.606;2022-12-15T00:15:06;45.60;40.63;60.86;;
74496;Laerm;62979;55.720;37.606;2022-12-15T00:17:50;45.86;41.59;55.87;;
74496;Laerm;62979;55.720;37.606;2022-12-15T00:20:35;44.75;40.27;50.93;;
74496;Laerm;62979;55.720;37.606;2022-12-15T00:23:20;45.36;41.42;55.20;;
74496;Laerm;62979;55.720;37.606;2022-12-15T00:26:05;48.23;41.17;58.42;;
74496;Laerm;62979;55.720;37.606;2022-12-15T00:28:49;47.54;40.42;59.11;;
74496;Laerm;62979;55.720;37.606;2022-12-15T00:31:34;45.48;41.28;57.98;;
74496;Laerm;62979;55.720;37.606;2022-12-15T00:34:18;44.81;39.76;59.64;;
74496;Laerm;62979;55.720;37.606;2022-12-15T00:37:03;45.58;40.97;51.71;;
74496;Laerm;62979;55.720;37.606;2022-12-15T00:39:49;46.71;40.63;60.69;;
74496;Laerm;62979;55.720;37.606;2022-12-15T00:42:24;47.97;41.15;62.89;;
74496;Laerm;62979;55.720;37.606;2022-12-15T00:44:51;48.63;41.00;58.97;;
74496;Laerm;62979;55.720;37.606;2022-12-15T00:47:17;45.94;41.38;55.22;;
74496;Laerm;62979;55.720;37.606;2022-12-15T00:49:43;45.06;41.36;58.22;;
74496;Laerm;62979;55.720;37.606;2022-12-15T00:52:27;44.36;40.08;50.64;;
74496;Laerm;62979;55.720;37.606;2022-12-15T00:55:13;46.11;40.03;57.27;;
74496;Laerm;62979;55.720;37.606;2022-12-15T00:57:58;44.91;40.53;51.84;;
74496;Laerm;62979;55.720;37.606;2022-12-15T01:00:42;45.95;41.43;61.28;;
74496;Laerm;62979;55.720;37.606;2022-12-15T01:03:27;45.41;41.52;52.28;;
74496;Laerm;62979;55.720;37.606;2022-12-15T01:06:14;49.77;41.55;67.23;;
74496;Laerm;62979;55.720;37.606;2022-12-15T01:08:59;46.16;41.56;56.17;;
74496;Laerm;62979;55.720;37.606;2022-12-15T01:11:46;44.77;40.36;59.27;;
74496;Laerm;62979;55.720;37.606;2022-12-15T01:14:30;45.22;41.62;50.96;;
74496;Laerm;62979;55.720;37.606;2022-12-15T01:17:16;50.56;42.17;64.84;;
74496;Laerm;62979;55.720;37.606;2022-12-15T01:20:01;45.43;41.48;52.56;;
74496;Laerm;62979;55.720;37.606;2022-12-15T01:22:44;46.17;41.01;57.05;;
74496;Laerm;62979;55.720;37.606;2022-12-15T01:25:12;45.96;42.01;55.53;;
74496;Laerm;62979;55.720;37.606;2022-12-15T01:27:41;52.79;41.49;63.73;;
74496;Laerm;62979;55.720;37.606;2022-12-15T01:30:11;48.31;42.07;60.67;;
74496;Laerm;62979;55.720;37.606;2022-12-15T01:32:39;45.30;41.53;50.97;;
74496;Laerm;62979;55.720;37.606;2022-12-15T01:35:07;45.21;41.26;52.28;;
74496;Laerm;62979;55.720;37.606;2022-12-15T01:37:34;45.30;41.31;55.63;;
74496;Laerm;62979;55.720;37.606;2022-12-15T01:40:01;53.95;42.63;65.70;;
74496;Laerm;62979;55.720;37.606;2022-12-15T01:42:48;56.17;42.47;68.43;;
74496;Laerm;62979;55.720;37.606;2022-12-15T01:45:44;46.10;41.00;58.41;;
74496;Laerm;62979;55.720;37.606;2022-12-15T01:48:18;46.93;40.20;59.79;;
74496;Laerm;62979;55.720;37.606;2022-12-15T01:50:57;47.52;41.16;58.33;;
74496;Laerm;62979;55.720;37.606;2022-12-15T01:53:27;46.18;41.86;50.60;;
74496;Laerm;62979;55.720;37.606;2022-12-15T01:55:55;45.46;40.53;51.47;;
74496;Laerm;62979;55.720;37.606;2022-12-15T01:58:25;50.58;42.11;67.55;;
74496;Laerm;62979;55.720;37.606;2022-12-15T02:00:53;50.70;42.47;64.39;;
74496;Laerm;62979;55.720;37.606;2022-12-15T02:03:21;48.80;42.85;58.76;;
74496;Laerm;62979;55.720;37.606;2022-12-15T02:05:49;50.59;42.24;64.00;;
74496;Laerm;62979;55.720;37.606;2022-12-15T02:08:17;45.36;41.35;54.14;;
74496;Laerm;62979;55.720;37.606;2022-12-15T02:13:59;48.51;43.05;63.98;;
74496;Laerm;62979;55.720;37.606;2022-12-15T02:16:45;48.23;42.05;68.66;;
74496;Laerm;62979;55.720;37.606;2022-12-15T02:23:08;47.75;42.05;63.74;;
74496;Laerm;62979;55.720;37.606;2022-12-15T02:26:05;50.08;43.31;62.73;;
74496;Laerm;62979;55.720;37.606;2022-12-15T02:28:55;49.27;43.04;63.97;;
74496;Laerm;62979;55.720;37.606;2022-12-15T02:31:31;55.32;42.55;69.71;;
74496;Laerm;62979;55.720;37.606;2022-12-15T02:34:25;51.60;42.76;63.33;;
74496;Laerm;62979;55.720;37.606;2022-12-15T02:36:58;51.41;43.26;66.58;;
74496;Laerm;62979;55.720;37.606;2022-12-15T02:39:26;49.97;43.46;62.57;;
74496;Laerm;62979;55.720;37.606;2022-12-15T02:41:53;46.81;42.14;53.31;;
74496;Laerm;62979;55.720;37.606;2022-12-15T02:44:25;51.43;45.05;68.61;;
74496;Laerm;62979;55.720;37.606;2022-12-15T02:47:16;53.11;45.67;68.93;;
74496;Laerm;62979;55.720;37.606;2022-12-15T02:50:03;48.66;44.41;56.40;;
74496;Laerm;62979;55.720;37.606;2022-12-15T02:52:52;48.73;43.73;58.58;;
74496;Laerm;62979;55.720;37.606;2022-12-15T02:55:33;57.16;45.15;68.58;;
74496;Laerm;62979;55.720;37.606;2022-12-15T02:58:11;49.74;44.82;59.45;;
74496;Laerm;62979;55.720;37.606;2022-12-15T03:00:45;49.74;43.48;60.17;;
74496;Laerm;62979;55.720;37.606;2022-12-15T03:03:17;53.90;44.74;65.54;;
74496;Laerm;62979;55.720;37.606;2022-12-15T03:05:46;55.10;46.34;76.05;;
74496;Laerm;62979;55.720;37.606;2022-12-15T03:08:13;55.82;52.85;69.50;;
74496;Laerm;62979;55.720;37.606;2022-12-15T03:10:40;56.32;52.98;69.57;;
74496;Laerm;62979;55.720;37.606;2022-12-15T03:13:07;55.64;52.70;60.30;;
74496;Laerm;62979;55.720;37.606;2022-12-15T03:15:34;56.12;53.00;69.23;;
74496;Laerm;62979;55.720;37.606;2022-12-15T03:18:01;56.41;52.71;62.48;;
74496;Laerm;62979;55.720;37.606;2022-12-15T03:20:29;57.53;53.23;69.32;;
74496;Laerm;62979;55.720;37.606;2022-12-15T03:22:56;61.66;53.94;70.69;;
74496;Laerm;62979;55.720;37.606;2022-12-15T03:25:23;63.84;52.98;77.67;;
74496;Laerm;62979;55.720;37.606;2022-12-15T03:27:50;63.58;52.29;78.74;;
74496;Laerm;62979;55.720;37.606;2022-12-15T03:30:17;56.42;51.39;66.26;;
74496;Laerm;62979;55.720;37.606;2022-12-15T03:32:44;58.39;51.79;72.39;;
74496;Laerm;62979;55.720;37.606;2022-12-15T03:35:11;56.98;53.13;69.61;;
74496;Laerm;62979;55.720;37.606;2022-12-15T03:37:40;57.35;47.17;74.08;;
74496;Laerm;62979;55.720;37.606;2022-12-15T03:40:10;52.93;46.70;61.08;;
74496;Laerm;62979;55.720;37.606;2022-12-15T03:42:39;52.49;48.39;64.16;;
74496;Laerm;62979;55.720;37.606;2022-12-15T03:45:15;54.35;48.51;67.47;;
74496;Laerm;62979;55.720;37.606;2022-12-15T03:47:43;54.14;47.66;66.39;;
74496;Laerm;62979;55.720;37.606;2022-12-15T03:50:13;54.58;46.52;65.08;;
74496;Laerm;62979;55.720;37.606;2022-12-15T03:52:43;53.86;45.79;63.80;;
74496;Laerm;62979;55.720;37.606;2022-12-15T03:55:11;54.77;46.10;72.25;;
74496;Laerm;62979;55.720;37.606;2022-12-15T03:57:38;65.15;47.99;77.62;;
74496;Laerm;62979;55.720;37.606;2022-12-15T04:00:06;52.12;47.11;61.65;;
74496;Laerm;62979;55.720;37.606;2022-12-15T04:02:33;63.65;46.03;77.58;;
74496;Laerm;62979;55.720;37.606;2022-12-15T04:05:00;59.10;46.26;71.40;;
74496;Laerm;62979;55.720;37.606;2022-12-15T04:07:27;53.64;46.60;63.14;;
74496;Laerm;62979;55.720;37.606;2022-12-15T04:09:55;53.51;46.86;65.54;;
74496;Laerm;62979;55.720;37.606;2022-12-15T04:12:22;55.46;48.60;65.57;;
74496;Laerm;62979;55.720;37.606;2022-12-15T04:14:49;56.23;47.87;65.67;;
74496;Laerm;62979;55.720;37.606;2022-12-15T04:17:16;53.90;45.31;63.34;;
74496;Laerm;62979;55.720;37.606;2022-12-15T04:19:43;55.23;47.18;65.13;;
74496;Laerm;62979;55.720;37.606;2022-12-15T04:22:27;57.36;47.08;75.37;;
74496;Laerm;62979;55.720;37.606;2022-12-15T04:24:55;55.26;48.19;69.97;;
74496;Laerm;62979;55.720;37.606;2022-12-15T04:27:39;56.53;48.15;64.23;;
74496;Laerm;62979;55.720;37.606;2022-12-15T04:30:24;57.26;49.78;67.85;;
74496;Laerm;62979;55.720;37.606;2022-12-15T04:33:09;56.16;46.93;66.57;;
74496;Laerm;62979;55.720;37.606;2022-12-15T04:35:54;57.08;50.79;64.17;;
74496;Laerm;62979;55.720;37.606;2022-12-15T04:38:39;64.41;48.67;77.59;;
74496;Laerm;62979;55.720;37.606;2022-12-15T04:41:24;55.94;47.36;73.64;;
74496;Laerm;62979;55.720;37.606;2022-12-15T04:44:10;57.78;49.39;66.54;;
74496;Laerm;62979;55.720;37.606;2022-12-15T04:46:55;65.79;52.60;84.60;;
74496;Laerm;62979;55.720;37.606;2022-12-15T04:49:39;58.28;50.40;69.65;;
74496;Laerm;62979;55.720;37.606;2022-12-15T04:52:24;58.70;51.69;65.28;;
74496;Laerm;62979;55.720;37.606;2022-12-15T04:55:08;59.48;52.45;72.35;;
74496;Laerm;62979;55.720;37.606;2022-12-15T04:57:54;57.69;50.99;66.11;;
74496;Laerm;62979;55.720;37.606;2022-12-15T05:00:38;60.63;52.38;72.85;;
74496;Laerm;62979;55.720;37.606;2022-12-15T05:03:22;62.12;57.03;77.58;;
74496;Laerm;62979;55.720;37.606;2022-12-15T05:06:07;59.48;52.33;74.44;;
74496;Laerm;62979;55.720;37.606;2022-12-15T05:08:51;61.85;53.41;74.60;;
74496;Laerm;62979;55.720;37.606;2022-12-15T05:11:37;66.70;53.20;78.60;;
74496;Laerm;62979;55.720;37.606;2022-12-15T05:14:23;57.42;51.75;63.25;;
74496;Laerm;62979;55.720;37.606;2022-12-15T05:17:07;58.14;51.06;67.67;;
74496;Laerm;62979;55.720;37.606;2022-12-15T05:19:51;59.28;52.23;72.92;;
74496;Laerm;62979;55.720;37.606;2022-12-15T05:22:36;64.87;55.52;77.31;;
74496;Laerm;62979;55.720;37.606;2022-12-15T05:25:20;61.42;53.51;72.78;;
74496;Laerm;62979;55.720;37.606;2022-12-15T05:28:06;58.99;51.50;68.32;;
74496;Laerm;62979;55.720;37.606;2022-12-15T05:30:51;63.91;52.29;75.61;;
74496;Laerm;62979;55.720;37.606;2022-12-15T05:33:36;58.44;51.23;70.70;;
74496;Laerm;62979;55.720;37.606;2022-12-15T05:36:04;56.56;50.51;64.67;;
74496;Laerm;62979;55.720;37.606;2022-12-15T05:38:31;68.06;55.59;78.57;;
74496;Laerm;62979;55.720;37.606;2022-12-15T05:40:58;67.32;49.60;80.60;;
74496;Laerm;62979;55.720;37.606;2022-12-15T05:43:27;58.88;53.83;65.61;;
74496;Laerm;62979;55.720;37.606;2022-12-15T05:45:55;58.20;51.14;65.19;;
74496;Laerm;62979;55.720;37.606;2022-12-15T05:48:22;60.42;52.96;70.83;;
74496;Laerm;62979;55.720;37.606;2022-12-15T05:50:49;65.29;54.51;75.33;;
74496;Laerm;62979;55.720;37.606;2022-12-15T05:53:16;68.53;58.73;77.33;;
74496;Laerm;62979;55.720;37.606;2022-12-15T05:55:43;61.93;55.78;69.57;;
74496;Laerm;62979;55.720;37.606;2022-12-15T05:58:10;58.58;51.25;65.74;;
74496;Laerm;62979;55.720;37.606;2022-12-15T06:00:38;59.84;52.89;67.79;;
74496;Laerm;62979;55.720;37.606;2022-12-15T06:03:06;63.37;52.39;74.65;;
74496;Laerm;62979;55.720;37.606;2022-12-15T06:05:33;64.92;54.42;74.61;;
74496;Laerm;62979;55.720;37.606;2022-12-15T06:08:00;61.09;53.55;72.23;;
74496;Laerm;62979;55.720;37.606;2022-12-15T06:10:27;59.70;53.54;72.85;;
74496;Laerm;62979;55.720;37.606;2022-12-15T06:12:53;62.09;51.15;75.77;;
74496;Laerm;62979;55.720;37.606;2022-12-15T06:15:20;56.83;49.91;64.39;;
74496;Laerm;62979;55.720;37.606;2022-12-15T06:17:47;58.39;49.79;64.11;;
74496;Laerm;62979;55.720;37.606;2022-12-15T06:20:16;57.03;48.09;78.62;;
74496;Laerm;62979;55.720;37.606;2022-12-15T06:22:42;58.08;49.36;68.99;;
74496;Laerm;62979;55.720;37.606;2022-12-15T06:25:09;57.52;49.53;64.07;;
74496;Laerm;62979;55.720;37.606;2022-12-15T06:27:36;57.07;48.83;64.46;;
74496;Laerm;62979;55.720;37.606;2022-12-15T06:30:04;57.02;49.01;70.09;;
74496;Laerm;62979;55.720;37.606;2022-12-15T06:32:33;58.92;50.03;71.62;;
74496;Laerm;62979;55.720;37.606;2022-12-15T06:35:00;60.33;55.52;70.57;;
74496;Laerm;62979;55.720;37.606;2022-12-15T06:37:29;58.58;51.20;73.03;;
74496;Laerm;62979;55.720;37.606;2022-12-15T06:39:56;61.56;52.76;74.19;;
74496;Laerm;62979;55.720;37.606;2022-12-15T06:42:22;61.94;53.21;72.77;;
74496;Laerm;62979;55.720;37.606;2022-12-15T06:44:49;61.63;54.37;72.26;;
74496;Laerm;62979;55.720;37.606;2022-12-15T06:47:16;61.66;51.74;74.70;;
74496;Laerm;62979;55.720;37.606;2022-12-15T06:49:43;56.80;49.77;64.09;;
74496;Laerm;62979;55.720;37.606;2022-12-15T06:52:10;58.09;50.64;64.87;;
74496;Laerm;62979;55.720;37.606;2022-12-15T06:54:38;57.62;50.09;67.49;;
74496;Laerm;62979;55.720;37.606;2022-12-15T06:57:05;59.80;53.60;67.10;;
74496;Laerm;62979;55.720;37.606;2022-12-15T06:59:32;58.86;51.54;67.79;;
74496;Laerm;62979;55.720;37.606;2022-12-15T07:01:59;57.49;48.65;67.40;;
74496;Laerm;62979;55.720;37.606;2022-12-15T07:04:26;58.49;50.85;67.69;;
74496;Laerm;62979;55.720;37.606;2022-12-15T07:06:53;58.75;49.42;68.48;;
74496;Laerm;62979;55.720;37.606;2022-12-15T07:09:21;57.85;49.94;70.13;;
74496;Laerm;62979;55.720;37.606;2022-12-15T07:11:51;57.75;48.16;70.69;;
74496;Laerm;62979;55.720;37.606;2022-12-15T07:14:18;57.50;46.80;65.63;;
74496;Laerm;62979;55.720;37.606;2022-12-15T07:16:45;58.49;48.81;66.81;;
74496;Laerm;62979;55.720;37.606;2022-12-15T07:19:13;56.51;45.95;69.98;;
74496;Laerm;62979;55.720;37.606;2022-12-15T07:21:40;58.61;50.05;68.20;;
74496;Laerm;62979;55.720;37.606;2022-12-15T07:24:09;57.26;48.11;66.79;;
74496;Laerm;62979;55.720;37.606;2022-12-15T07:26:36;58.87;47.75;73.35;;
74496;Laerm;62979;55.720;37.606;2022-12-15T07:29:05;57.31;46.99;70.71;;
74496;Laerm;62979;55.720;37.606;2022-12-15T07:31:32;57.79;49.00;67.51;;
74496;Laerm;62979;55.720;37.606;2022-12-15T07:33:58;57.58;50.45;67.58;;
74496;Laerm;62979;55.720;37.606;2022-12-15T07:36:26;56.68;46.80;72.46;;
74496;Laerm;62979;55.720;37.606;2022-12-15T07:38:57;57.06;47.99;74.06;;
74496;Laerm;62979;55.720;37.606;2022-12-15T07:41:26;58.65;49.96;74.42;;
74496;Laerm;62979;55.720;37.606;2022-12-15T07:43:55;57.55;48.71;68.40;;
74496;Laerm;62979;55.720;37.606;2022-12-15T07:46:23;58.64;51.78;71.29;;
74496;Laerm;62979;55.720;37.606;2022-12-15T07:48:51;59.31;53.42;68.95;;
74496;Laerm;62979;55.720;37.606;2022-12-15T07:51:19;57.63;52.38;69.63;;
74496;Laerm;62979;55.720;37.606;2022-12-15T07:53:47;59.40;52.91;71.98;;
74496;Laerm;62979;55.720;37.606;2022-12-15T07:56:16;59.55;53.57;72.45;;
74496;Laerm;62979;55.720;37.606;2022-12-15T07:58:43;60.24;54.35;73.97;;
74496;Laerm;62979;55.720;37.606;2022-12-15T08:01:12;60.41;53.63;69.13;;
74496;Laerm;62979;55.720;37.606;2022-12-15T08:03:41;58.94;52.24;72.13;;
74496;Laerm;62979;55.720;37.606;2022-12-15T08:06:10;61.76;57.18;69.36;;
74496;Laerm;62979;55.720;37.606;2022-12-15T08:08:38;62.43;55.94;78.09;;
74496;Laerm;62979;55.720;37.606;2022-12-15T08:11:07;61.22;53.89;72.36;;
74496;Laerm;62979;55.720;37.606;2022-12-15T08:13:35;60.69;54.16;76.61;;
74496;Laerm;62979;55.720;37.606;2022-12-15T08:16:03;59.03;52.98;69.17;;
74496;Laerm;62979;55.720;37.606;2022-12-15T08:18:29;57.95;51.30;71.05;;
74496;Laerm;62979;55.720;37.606;2022-12-15T08:21:02;58.66;50.20;74.36;;
74496;Laerm;62979;55.720;37.606;2022-12-15T08:23:30;57.74;50.24;68.43;;
74496;Laerm;62979;55.720;37.606;2022-12-15T08:26:01;58.20;49.57;67.89;;
74496;Laerm;62979;55.720;37.606;2022-12-15T08:28:30;60.69;51.28;69.54;;
74496;Laerm;62979;55.720;37.606;2022-12-15T08:31:02;59.15;52.45;73.36;;
74496;Laerm;62979;55.720;37.606;2022-12-15T08:33:29;61.19;49.79;80.48;;
74496;Laerm;62979;55.720;37.606;2022-12-15T08:35:58;58.88;49.51;75.91;;
74496;Laerm;62979;55.720;37.606;2022-12-15T08:38:26;57.68;48.76;76.17;;
74496;Laerm;62979;55.720;37.606;2022-12-15T08:40:53;60.10;52.40;67.78;;
74496;Laerm;62979;55.720;37.606;2022-12-15T08:43:20;57.33;50.78;70.58;;
74496;Laerm;62979;55.720;37.606;2022-12-15T08:45:47;58.74;50.02;68.93;;
74496;Laerm;62979;55.720;37.606;2022-12-15T08:48:14;59.58;51.87;70.67;;
74496;Laerm;62979;55.720;37.606;2022-12-15T08:50:43;61.65;52.23;78.27;;
74496;Laerm;62979;55.720;37.606;2022-12-15T08:53:11;62.13;53.38;84.96;;
74496;Laerm;62979;55.720;37.606;2022-12-15T08:55:39;63.10;53.02;72.61;;
74496;Laerm;62979;55.720;37.606;2022-12-15T08:58:06;65.32;54.50;84.66;;
74496;Laerm;62979;55.720;37.606;2022-12-15T09:00:33;66.83;52.78;83.59;;
74496;Laerm;62979;55.720;37.606;2022-12-15T09:03:00;67.37;56.06;77.26;;
74496;Laerm;62979;55.720;37.606;2022-12-15T09:05:27;66.29;56.39;78.11;;
74496;Laerm;62979;55.720;37.606;2022-12-15T09:07:54;63.21;55.32;71.28;;
74496;Laerm;62979;55.720;37.606;2022-12-15T09:10:23;66.64;55.14;81.47;;
74496;Laerm;62979;55.720;37.606;2022-12-15T09:12:51;57.32;49.69;64.32;;
74496;Laerm;62979;55.720;37.606;2022-12-15T09:15:19;56.94;49.18;64.38;;
74496;Laerm;62979;55.720;37.606;2022-12-15T09:17:46;55.27;48.18;62.11;;
74496;Laerm;62979;55.720;37.606;2022-12-15T09:20:13;57.29;47.57;66.21;;
74496;Laerm;62979;55.720;37.606;2022-12-15T09:22:40;56.50;48.86;64.27;;
74496;Laerm;62979;55.720;37.606;2022-12-15T09:25:08;58.85;50.07;67.70;;
74496;Laerm;62979;55.720;37.606;2022-12-15T09:27:35;58.66;49.24;69.40;;
74496;Laerm;62979;55.720;37.606;2022-12-15T09:30:04;59.00;50.24;68.46;;
74496;Laerm;62979;55.720;37.606;2022-12-15T09:32:32;57.88;50.30;64.96;;
74496;Laerm;62979;55.720;37.606;2022-12-15T09:34:59;59.06;50.11;69.18;;
74496;Laerm;62979;55.720;37.606;2022-12-15T09:37:26;57.55;50.49;65.29;;
74496;Laerm;62979;55.720;37.606;2022-12-15T09:39:53;58.43;51.16;67.86;;
74496;Laerm;62979;55.720;37.606;2022-12-15T09:42:24;57.89;49.16;68.31;;
74496;Laerm;62979;55.720;37.606;2022-12-15T09:45:01;58.87;51.40;64.99;;
74496;Laerm;62979;55.720;37.606;2022-12-15T09:47:41;60.58;48.69;71.76;;
74496;Laerm;62979;55.720;37.606;2022-12-15T09:50:13;59.01;51.59;65.80;;
74496;Laerm;62979;55.720;37.606;2022-12-15T09:52:47;59.41;51.00;65.87;;
74496;Laerm;62979;55.720;37.606;2022-12-15T09:55:18;57.71;49.15;65.09;;
74496;Laerm;62979;55.720;37.606;2022-12-15T09:57:51;57.57;46.57;68.51;;
74496;Laerm;62979;55.720;37.606;2022-12-15T10:00:22;59.18;49.77;71.69;;
74496;Laerm;62979;55.720;37.606;2022-12-15T10:03:22;58.87;50.35;70.55;;
74496;Laerm;62979;55.720;37.606;2022-12-15T10:06:05;58.84;48.01;67.16;;
74496;Laerm;62979;55.720;37.606;2022-12-15T10:08:36;59.05;50.23;66.09;;
74496;Laerm;62979;55.720;37.606;2022-12-15T10:11:18;59.36;50.36;68.32;;
74496;Laerm;62979;55.720;37.606;2022-12-15T10:13:53;57.63;51.62;68.63;;
74496;Laerm;62979;55.720;37.606;2022-12-15T10:16:30;58.95;51.22;67.51;;
74496;Laerm;62979;55.720;37.606;2022-12-15T10:19:09;58.82;50.65;71.12;;
74496;Laerm;62979;55.720;37.606;2022-12-15T10:21:38;60.84;48.49;76.15;;
74496;Laerm;62979;55.720;37.606;2022-12-15T10:24:15;57.94;49.92;68.09;;
74496;Laerm;62979;55.720;37.606;2022-12-15T10:26:48;57.99;49.28;65.52;;
74496;Laerm;62979;55.720;37.606;2022-12-15T10:29:32;58.23;49.75;66.62;;
74496;Laerm;62979;55.720;37.606;2022-12-15T10:32:11;58.59;50.84;71.57;;
74496;Laerm;62979;55.720;37.606;2022-12-15T10:34:43;58.04;49.44;72.87;;
74496;Laerm;62979;55.720;37.606;2022-12-15T10:37:13;58.10;50.62;65.62;;
74496;Laerm;62979;55.720;37.606;2022-12-15T10:39:45;57.60;48.98;67.65;;
74496;Laerm;62979;55.720;37.606;2022-12-15T10:42:16;59.37;49.03;69.77;;
74496;Laerm;62979;55.720;37.606;2022-12-15T10:44:48;57.85;48.65;68.16;;
74496;Laerm;62979;55.720;37.606;2022-12-15T10:47:22;57.45;50.57;65.54;;
74496;Laerm;62979;55.720;37.606;2022-12-15T10:49:52;58.17;50.95;70.17;;
74496;Laerm;62979;55.720;37.606;2022-12-15T10:52:31;59.11;52.21;83.24;;
74496;Laerm;62979;55.720;37.606;2022-12-15T10:55:00;58.80;51.77;72.48;;
74496;Laerm;62979;55.720;37.606;2022-12-15T10:57:29;58.09;49.26;68.66;;
74496;Laerm;62979;55.720;37.606;2022-12-15T11:00:25;58.74;48.10;64.93;;
74496;Laerm;62979;55.720;37.606;2022-12-15T11:02:53;58.89;52.02;76.90;;
74496;Laerm;62979;55.720;37.606;2022-12-15T11:05:22;63.34;55.25;75.71;;
74496;Laerm;62979;55.720;37.606;2022-12-15T11:07:51;64.58;57.55;77.53;;
74496;Laerm;62979;55.720;37.606;2022-12-15T11:10:23;60.23;52.78;71.92;;
74496;Laerm;62979;55.720;37.606;2022-12-15T11:13:09;56.71;49.01;64.95;;
74496;Laerm;62979;55.720;37.606;2022-12-15T11:15:44;64.98;53.43;78.28;;
74496;Laerm;62979;55.720;37.606;2022-12-15T11:18:28;60.22;56.27;74.82;;
74496;Laerm;62979;55.720;37.606;2022-12-15T11:21:04;65.45;53.84;80.42;;
74496;Laerm;62979;55.720;37.606;2022-12-15T11:23:49;62.54;51.34;75.58;;
74496;Laerm;62979;55.720;37.606;2022-12-15T11:26:29;65.26;50.30;75.98;;
74496;Laerm;62979;55.720;37.606;2022-12-15T11:29:09;63.74;51.89;77.19;;
74496;Laerm;62979;55.720;37.606;2022-12-15T11:31:42;65.44;50.58;75.89;;
74496;Laerm;62979;55.720;37.606;2022-12-15T11:34:13;63.86;52.25;77.73;;
74496;Laerm;62979;55.720;37.606;2022-12-15T11:37:11;57.38;50.35;66.58;;
74496;Laerm;62979;55.720;37.606;2022-12-15T11:39:56;59.17;50.40;76.94;;
74496;Laerm;62979;55.720;37.606;2022-12-15T11:42:43;61.60;49.34;78.27;;
74496;Laerm;62979;55.720;37.606;2022-12-15T11:45:21;64.18;52.61;82.18;;
74496;Laerm;62979;55.720;37.606;2022-12-15T11:47:57;65.21;51.97;77.89;;
74496;Laerm;62979;55.720;37.606;2022-12-15T11:50:40;62.57;51.60;76.44;;
74496;Laerm;62979;55.720;37.606;2022-12-15T11:53:29;65.06;53.89;75.21;;
74496;Laerm;62979;55.720;37.606;2022-12-15T11:56:14;57.65;51.55;64.38;;
74496;Laerm;62979;55.720;37.606;2022-12-15T11:59:25;63.60;52.72;77.37;;
74496;Laerm;62979;55.720;37.606;2022-12-15T12:02:18;64.22;52.20;77.05;;
74496;Laerm;62979;55.720;37.606;2022-12-15T12:07:48;63.88;55.47;73.25;;
74496;Laerm;62979;55.720;37.606;2022-12-15T12:10:30;62.63;54.23;75.72;;
74496;Laerm;62979;55.720;37.606;2022-12-15T12:13:17;60.55;53.67;73.26;;
74496;Laerm;62979;55.720;37.606;2022-12-15T12:15:55;59.07;53.03;70.07;;
74496;Laerm;62979;55.720;37.606;2022-12-15T12:18:30;59.99;53.03;72.77;;
74496;Laerm;62979;55.720;37.606;2022-12-15T12:21:06;60.13;53.71;71.54;;
74496;Laerm;62979;55.720;37.606;2022-12-15T12:23:41;59.87;53.47;68.80;;
74496;Laerm;62979;55.720;37.606;2022-12-15T12:26:21;60.19;52.61;70.59;;
74496;Laerm;62979;55.720;37.606;2022-12-15T12:29:00;60.31;54.28;69.43;;
74496;Laerm;62979;55.720;37.606;2022-12-15T12:31:45;59.92;53.54;69.27;;
74496;Laerm;62979;55.720;37.606;2022-12-15T12:34:27;60.51;53.05;70.30;;
74496;Laerm;62979;55.720;37.606;2022-12-15T12:37:06;59.33;53.89;70.04;;
74496;Laerm;62979;55.720;37.606;2022-12-15T12:39:36;59.70;53.50;82.45;;
74496;Laerm;62979;55.720;37.606;2022-12-15T12:42:13;63.67;52.93;76.76;;
74496;Laerm;62979;55.720;37.606;2022-12-15T12:44:41;64.61;53.24;77.05;;
74496;Laerm;62979;55.720;37.606;2022-12-15T12:47:16;62.40;50.82;77.52;;
74496;Laerm;62979;55.720;37.606;2022-12-15T12:49:51;63.31;49.61;72.46;;
74496;Laerm;62979;55.720;37.606;2022-12-15T12:52:23;60.40;52.91;74.84;;
74496;Laerm;62979;55.720;37.606;2022-12-15T12:54:57;62.77;55.20;76.65;;
74496;Laerm;62979;55.720;37.606;2022-12-15T12:57:38;64.51;53.67;78.33;;
74496;Laerm;62979;55.720;37.606;2022-12-15T13:00:22;62.51;51.91;76.97;;
74496;Laerm;62979;55.720;37.606;2022-12-15T13:03:16;64.17;50.10;77.09;;
74496;Laerm;62979;55.720;37.606;2022-12-15T13:05:49;61.42;50.86;74.21;;
74496;Laerm;62979;55.720;37.606;2022-12-15T13:08:48;64.39;52.32;84.37;;
74496;Laerm;62979;55.720;37.606;2022-12-15T13:11:56;64.50;51.14;76.30;;
74496;Laerm;62979;55.720;37.606;2022-12-15T13:14:46;58.16;50.71;65.43;;
74496;Laerm;62979;55.720;37.606;2022-12-15T13:17:26;59.50;53.58;80.34;;
74496;Laerm;62979;55.720;37.606;2022-12-15T13:20:17;58.47;50.31;71.40;;
74496;Laerm;62979;55.720;37.606;2022-12-15T13:22:45;62.83;51.62;78.62;;
74496;Laerm;62979;55.720;37.606;2022-12-15T13:25:40;60.48;49.56;70.44;;
74496;Laerm;62979;55.720;37.606;2022-12-15T13:28:26;61.92;50.13;77.16;;
74496;Laerm;62979;55.720;37.606;2022-12-15T13:31:31;62.56;54.97;75.17;;
74496;Laerm;62979;55.720;37.606;2022-12-15T13:34:20;62.13;53.81;72.33;;
74496;Laerm;62979;55.720;37.606;2022-12-15T13:36:54;57.24;48.85;67.30;;
74496;Laerm;62979;55.720;37.606;2022-12-15T13:39:56;58.61;49.80;77.91;;
74496;Laerm;62979;55.720;37.606;2022-12-15T13:42:34;57.48;50.37;66.57;;
74496;Laerm;62979;55.720;37.606;2022-12-15T13:45:28;56.76;49.59;64.64;;
74496;Laerm;62979;55.720;37.606;2022-12-15T13:48:00;57.17;48.45;65.89;;
74496;Laerm;62979;55.720;37.606;2022-12-15T13:50:44;58.45;51.25;66.70;;
74496;Laerm;62979;55.720;37.606;2022-12-15T13:53:18;57.64;49.41;66.93;;
74496;Laerm;62979;55.720;37.606;2022-12-15T13:56:05;56.87;50.48;64.43;;
74496;Laerm;62979;55.720;37.606;2022-12-15T13:58:51;61.29;50.32;75.74;;
74496;Laerm;62979;55.720;37.606;2022-12-15T14:01:23;57.42;48.09;74.04;;
74496;Laerm;62979;55.720;37.606;2022-12-15T14:04:05;57.85;50.80;68.27;;
74496;Laerm;62979;55.720;37.606;2022-12-15T14:06:40;57.51;48.89;70.56;;
74496;Laerm;62979;55.720;37.606;2022-12-15T14:09:13;59.77;51.77;69.38;;
74496;Laerm;62979;55.720;37.606;2022-12-15T14:11:43;56.67;49.71;63.72;;
74496;Laerm;62979;55.720;37.606;2022-12-15T14:14:19;56.88;49.92;64.84;;
74496;Laerm;62979;55.720;37.606;2022-12-15T14:16:53;58.92;51.22;69.97;;
74496;Laerm;62979;55.720;37.606;2022-12-15T14:19:23;55.64;49.50;67.94;;
74496;Laerm;62979;55.720;37.606;2022-12-15T14:21:52;59.27;49.27;80.27;;
74496;Laerm;62979;55.720;37.606;2022-12-15T14:24:27;55.68;46.89;64.55;;